MDST/STI METAR and TAF weather

Enter ICAO airport designator
Station Type Date Time Source
MDST METAR 2020/04/10 18:00 UTC NOAA

MDST 101800Z 13004KT 080V180 9999 FEW024 34/22 Q1012 NOSIG


Station Type Date Time Source
MDST Decoded METAR 2020/04/10 18:00 UTC NOAA

Santiago, Dominican Republic (MDST) 19-27N 070-42W
Apr 10, 2020 - 02:00 PM EDT / 2020.04.10 1800 UTC
Wind: from the SE (130 degrees) at 5 MPH (4 KT) (direction variable):0
Visibility: greater than 7 mile(s):0
Sky conditions: mostly clear
Temperature: 93 F (34 C)
Heat index: 100.0 F (37.8 C):1
Dew Point: 71 F (22 C)
Relative Humidity: 49%
Pressure (altimeter): 29.88 in. Hg (1012 hPa)
ob: MDST 101800Z 13004KT 080V180 9999 FEW024 34/22 Q1012 NOSIG
cycle: 18

Station Type Date Time Source
MDST TAF 2020/04/10 18:06 UTC NOAA

TAF MDST 101600Z 1018/1118 110048KT 9999 FEW022
BECMG 1022/1101 07006KT 9999 SCT018 PROB30 1110/1112 4000 BR SCR016

Example: see airport list